sensor_id;sensor_type;location;lat;lon;timestamp;P1;durP1;ratioP1;P2;durP2;ratioP2
15065;SDS011;7632;64.944;20.038;2024-03-23T00:53:16;0.50;;;0.50;;
15065;SDS011;7632;64.944;20.038;2024-03-23T00:55:43;0.60;;;0.60;;
15065;SDS011;7632;64.944;20.038;2024-03-23T00:58:09;0.60;;;0.60;;
15065;SDS011;7632;64.944;20.038;2024-03-23T01:00:36;0.60;;;0.60;;
15065;SDS011;7632;64.944;20.038;2024-03-23T01:03:05;0.50;;;0.50;;
15065;SDS011;7632;64.944;20.038;2024-03-23T01:05:32;0.50;;;0.50;;
15065;SDS011;7632;64.944;20.038;2024-03-23T01:07:57;0.63;;;0.63;;
15065;SDS011;7632;64.944;20.038;2024-03-23T01:10:26;0.60;;;0.60;;
15065;SDS011;7632;64.944;20.038;2024-03-23T01:12:51;0.63;;;0.63;;
15065;SDS011;7632;64.944;20.038;2024-03-23T01:15:18;0.60;;;0.60;;
15065;SDS011;7632;64.944;20.038;2024-03-23T01:17:44;0.60;;;0.60;;
15065;SDS011;7632;64.944;20.038;2024-03-23T01:20:11;0.60;;;0.60;;
15065;SDS011;7632;64.944;20.038;2024-03-23T01:22:37;0.70;;;0.70;;
15065;SDS011;7632;64.944;20.038;2024-03-23T01:25:04;0.60;;;0.60;;
15065;SDS011;7632;64.944;20.038;2024-03-23T01:27:31;0.63;;;0.63;;
15065;SDS011;7632;64.944;20.038;2024-03-23T01:29:58;0.50;;;0.50;;
15065;SDS011;7632;64.944;20.038;2024-03-23T01:32:23;0.50;;;0.50;;
15065;SDS011;7632;64.944;20.038;2024-03-23T01:34:50;0.40;;;0.40;;
15065;SDS011;7632;64.944;20.038;2024-03-23T01:37:16;0.60;;;0.60;;
15065;SDS011;7632;64.944;20.038;2024-03-23T01:39:42;0.47;;;0.47;;
15065;SDS011;7632;64.944;20.038;2024-03-23T01:42:08;0.50;;;0.50;;
15065;SDS011;7632;64.944;20.038;2024-03-23T01:44:37;0.50;;;0.50;;
15065;SDS011;7632;64.944;20.038;2024-03-23T01:47:03;0.40;;;0.40;;
15065;SDS011;7632;64.944;20.038;2024-03-23T01:49:30;0.50;;;0.50;;
15065;SDS011;7632;64.944;20.038;2024-03-23T01:51:56;0.57;;;0.57;;
15065;SDS011;7632;64.944;20.038;2024-03-23T01:54:23;0.50;;;0.50;;
15065;SDS011;7632;64.944;20.038;2024-03-23T01:56:49;0.40;;;0.40;;
15065;SDS011;7632;64.944;20.038;2024-03-23T01:59:15;0.50;;;0.50;;
15065;SDS011;7632;64.944;20.038;2024-03-23T02:01:43;0.53;;;0.53;;
15065;SDS011;7632;64.944;20.038;2024-03-23T02:04:09;0.60;;;0.60;;
15065;SDS011;7632;64.944;20.038;2024-03-23T02:06:35;0.50;;;0.50;;
15065;SDS011;7632;64.944;20.038;2024-03-23T02:09:02;0.50;;;0.50;;
15065;SDS011;7632;64.944;20.038;2024-03-23T02:11:29;0.40;;;0.40;;
15065;SDS011;7632;64.944;20.038;2024-03-23T02:13:55;0.47;;;0.47;;
15065;SDS011;7632;64.944;20.038;2024-03-23T02:16:21;0.60;;;0.60;;
15065;SDS011;7632;64.944;20.038;2024-03-23T02:18:49;0.30;;;0.30;;
15065;SDS011;7632;64.944;20.038;2024-03-23T02:21:15;0.53;;;0.50;;
15065;SDS011;7632;64.944;20.038;2024-03-23T02:23:43;0.60;;;0.60;;
15065;SDS011;7632;64.944;20.038;2024-03-23T02:26:09;0.50;;;0.50;;
15065;SDS011;7632;64.944;20.038;2024-03-23T02:28:36;0.57;;;0.57;;
15065;SDS011;7632;64.944;20.038;2024-03-23T02:31:02;0.47;;;0.47;;
15065;SDS011;7632;64.944;20.038;2024-03-23T02:33:29;0.40;;;0.40;;
15065;SDS011;7632;64.944;20.038;2024-03-23T02:35:55;0.40;;;0.40;;
15065;SDS011;7632;64.944;20.038;2024-03-23T02:38:22;0.50;;;0.50;;
15065;SDS011;7632;64.944;20.038;2024-03-23T02:40:49;0.50;;;0.50;;
15065;SDS011;7632;64.944;20.038;2024-03-23T02:43:16;0.60;;;0.60;;
15065;SDS011;7632;64.944;20.038;2024-03-23T02:45:42;0.50;;;0.50;;
15065;SDS011;7632;64.944;20.038;2024-03-23T02:48:09;0.57;;;0.57;;
15065;SDS011;7632;64.944;20.038;2024-03-23T02:50:35;0.40;;;0.40;;
15065;SDS011;7632;64.944;20.038;2024-03-23T02:53:01;0.50;;;0.50;;
15065;SDS011;7632;64.944;20.038;2024-03-23T02:55:27;0.40;;;0.40;;
15065;SDS011;7632;64.944;20.038;2024-03-23T02:57:55;0.40;;;0.40;;
15065;SDS011;7632;64.944;20.038;2024-03-23T03:00:21;0.60;;;0.60;;
15065;SDS011;7632;64.944;20.038;2024-03-23T03:02:48;0.50;;;0.50;;
15065;SDS011;7632;64.944;20.038;2024-03-23T03:05:14;0.50;;;0.50;;
15065;SDS011;7632;64.944;20.038;2024-03-23T03:07:40;0.50;;;0.50;;
15065;SDS011;7632;64.944;20.038;2024-03-23T03:10:06;0.50;;;0.50;;
15065;SDS011;7632;64.944;20.038;2024-03-23T03:12:36;0.50;;;0.50;;
15065;SDS011;7632;64.944;20.038;2024-03-23T03:15:04;0.50;;;0.50;;
15065;SDS011;7632;64.944;20.038;2024-03-23T03:17:31;0.53;;;0.53;;
15065;SDS011;7632;64.944;20.038;2024-03-23T03:19:57;0.50;;;0.50;;
15065;SDS011;7632;64.944;20.038;2024-03-23T03:22:25;0.60;;;0.60;;
15065;SDS011;7632;64.944;20.038;2024-03-23T03:24:50;0.63;;;0.63;;
15065;SDS011;7632;64.944;20.038;2024-03-23T03:27:17;0.50;;;0.50;;
15065;SDS011;7632;64.944;20.038;2024-03-23T03:29:43;0.50;;;0.50;;
15065;SDS011;7632;64.944;20.038;2024-03-23T03:32:11;0.60;;;0.60;;
15065;SDS011;7632;64.944;20.038;2024-03-23T03:34:37;0.60;;;0.60;;
15065;SDS011;7632;64.944;20.038;2024-03-23T03:37:04;0.40;;;0.40;;
15065;SDS011;7632;64.944;20.038;2024-03-23T03:39:30;0.57;;;0.57;;
15065;SDS011;7632;64.944;20.038;2024-03-23T03:41:56;0.60;;;0.60;;
15065;SDS011;7632;64.944;20.038;2024-03-23T03:44:22;0.60;;;0.60;;
15065;SDS011;7632;64.944;20.038;2024-03-23T03:46:49;0.63;;;0.63;;
15065;SDS011;7632;64.944;20.038;2024-03-23T03:49:16;0.60;;;0.57;;
15065;SDS011;7632;64.944;20.038;2024-03-23T03:51:43;0.50;;;0.50;;
15065;SDS011;7632;64.944;20.038;2024-03-23T03:54:08;0.60;;;0.60;;
15065;SDS011;7632;64.944;20.038;2024-03-23T03:56:35;0.40;;;0.40;;
15065;SDS011;7632;64.944;20.038;2024-03-23T03:59:01;0.40;;;0.40;;
15065;SDS011;7632;64.944;20.038;2024-03-23T04:01:27;0.50;;;0.50;;
15065;SDS011;7632;64.944;20.038;2024-03-23T04:03:53;0.43;;;0.43;;
15065;SDS011;7632;64.944;20.038;2024-03-23T04:06:21;0.50;;;0.50;;
15065;SDS011;7632;64.944;20.038;2024-03-23T04:08:47;0.47;;;0.47;;
15065;SDS011;7632;64.944;20.038;2024-03-23T04:11:14;0.50;;;0.50;;
15065;SDS011;7632;64.944;20.038;2024-03-23T04:13:40;0.60;;;0.60;;
15065;SDS011;7632;64.944;20.038;2024-03-23T04:16:07;0.50;;;0.50;;
15065;SDS011;7632;64.944;20.038;2024-03-23T04:18:34;0.57;;;0.57;;
15065;SDS011;7632;64.944;20.038;2024-03-23T04:21:01;0.40;;;0.40;;
15065;SDS011;7632;64.944;20.038;2024-03-23T04:23:28;0.60;;;0.60;;
15065;SDS011;7632;64.944;20.038;2024-03-23T04:25:55;2.17;;;0.60;;
15065;SDS011;7632;64.944;20.038;2024-03-23T04:28:21;0.70;;;0.70;;
15065;SDS011;7632;64.944;20.038;2024-03-23T04:30:48;0.60;;;0.60;;
15065;SDS011;7632;64.944;20.038;2024-03-23T04:33:14;0.50;;;0.50;;
15065;SDS011;7632;64.944;20.038;2024-03-23T04:35:40;0.70;;;0.70;;
15065;SDS011;7632;64.944;20.038;2024-03-23T04:38:07;0.77;;;0.77;;
15065;SDS011;7632;64.944;20.038;2024-03-23T04:40:36;1.77;;;1.67;;
15065;SDS011;7632;64.944;20.038;2024-03-23T04:43:03;0.70;;;0.70;;
15065;SDS011;7632;64.944;20.038;2024-03-23T04:45:30;0.83;;;0.83;;
15065;SDS011;7632;64.944;20.038;2024-03-23T04:47:57;0.80;;;0.80;;
15065;SDS011;7632;64.944;20.038;2024-03-23T04:50:23;0.70;;;0.70;;
15065;SDS011;7632;64.944;20.038;2024-03-23T04:52:50;0.80;;;0.80;;
15065;SDS011;7632;64.944;20.038;2024-03-23T04:55:17;0.80;;;0.80;;
15065;SDS011;7632;64.944;20.038;2024-03-23T04:57:45;0.97;;;0.90;;
15065;SDS011;7632;64.944;20.038;2024-03-23T05:00:12;0.93;;;0.90;;
15065;SDS011;7632;64.944;20.038;2024-03-23T05:02:43;0.87;;;0.87;;
15065;SDS011;7632;64.944;20.038;2024-03-23T05:05:10;1.30;;;1.20;;
15065;SDS011;7632;64.944;20.038;2024-03-23T05:07:37;1.20;;;1.10;;
15065;SDS011;7632;64.944;20.038;2024-03-23T05:10:03;1.20;;;1.10;;
15065;SDS011;7632;64.944;20.038;2024-03-23T05:12:30;1.30;;;1.20;;
15065;SDS011;7632;64.944;20.038;2024-03-23T05:14:57;1.20;;;1.10;;
15065;SDS011;7632;64.944;20.038;2024-03-23T05:17:24;1.20;;;1.10;;
15065;SDS011;7632;64.944;20.038;2024-03-23T05:19:51;1.30;;;1.20;;
15065;SDS011;7632;64.944;20.038;2024-03-23T05:22:17;1.10;;;1.00;;
15065;SDS011;7632;64.944;20.038;2024-03-23T05:24:44;1.20;;;1.10;;
15065;SDS011;7632;64.944;20.038;2024-03-23T05:27:11;1.20;;;1.10;;
15065;SDS011;7632;64.944;20.038;2024-03-23T05:29:37;1.07;;;0.97;;
15065;SDS011;7632;64.944;20.038;2024-03-23T05:32:06;1.20;;;1.10;;
15065;SDS011;7632;64.944;20.038;2024-03-23T05:34:32;1.37;;;1.27;;
15065;SDS011;7632;64.944;20.038;2024-03-23T05:36:59;1.10;;;1.00;;
15065;SDS011;7632;64.944;20.038;2024-03-23T05:39:25;1.20;;;1.10;;
15065;SDS011;7632;64.944;20.038;2024-03-23T05:41:51;1.30;;;1.20;;
15065;SDS011;7632;64.944;20.038;2024-03-23T05:44:17;1.30;;;1.20;;
15065;SDS011;7632;64.944;20.038;2024-03-23T05:46:44;1.30;;;1.20;;
15065;SDS011;7632;64.944;20.038;2024-03-23T05:49:15;1.30;;;1.20;;
15065;SDS011;7632;64.944;20.038;2024-03-23T05:51:42;1.50;;;1.30;;
15065;SDS011;7632;64.944;20.038;2024-03-23T05:54:08;1.20;;;1.10;;
15065;SDS011;7632;64.944;20.038;2024-03-23T05:56:35;1.40;;;1.30;;
15065;SDS011;7632;64.944;20.038;2024-03-23T05:59:00;1.40;;;1.30;;
15065;SDS011;7632;64.944;20.038;2024-03-23T06:01:28;1.30;;;1.20;;
15065;SDS011;7632;64.944;20.038;2024-03-23T06:03:54;1.40;;;1.30;;
15065;SDS011;7632;64.944;20.038;2024-03-23T06:06:22;1.20;;;1.10;;
15065;SDS011;7632;64.944;20.038;2024-03-23T06:08:49;1.20;;;1.10;;
15065;SDS011;7632;64.944;20.038;2024-03-23T06:11:15;1.40;;;1.30;;
15065;SDS011;7632;64.944;20.038;2024-03-23T06:13:41;1.30;;;1.20;;
15065;SDS011;7632;64.944;20.038;2024-03-23T06:16:08;1.20;;;1.10;;
15065;SDS011;7632;64.944;20.038;2024-03-23T06:18:33;1.37;;;1.27;;
15065;SDS011;7632;64.944;20.038;2024-03-23T06:21:00;1.20;;;1.10;;
15065;SDS011;7632;64.944;20.038;2024-03-23T06:23:27;1.20;;;1.10;;
15065;SDS011;7632;64.944;20.038;2024-03-23T06:25:54;1.00;;;1.00;;
15065;SDS011;7632;64.944;20.038;2024-03-23T06:28:20;1.03;;;1.00;;
15065;SDS011;7632;64.944;20.038;2024-03-23T06:30:47;1.40;;;1.30;;
15065;SDS011;7632;64.944;20.038;2024-03-23T06:33:12;1.20;;;1.10;;
15065;SDS011;7632;64.944;20.038;2024-03-23T06:35:39;1.10;;;1.00;;
15065;SDS011;7632;64.944;20.038;2024-03-23T06:38:05;1.30;;;1.20;;
15065;SDS011;7632;64.944;20.038;2024-03-23T06:40:35;1.27;;;1.17;;
15065;SDS011;7632;64.944;20.038;2024-03-23T06:43:01;1.07;;;0.97;;
15065;SDS011;7632;64.944;20.038;2024-03-23T06:45:28;1.13;;;1.03;;
15065;SDS011;7632;64.944;20.038;2024-03-23T06:47:54;0.90;;;0.90;;
15065;SDS011;7632;64.944;20.038;2024-03-23T06:50:22;0.90;;;0.90;;
15065;SDS011;7632;64.944;20.038;2024-03-23T06:52:49;0.80;;;0.80;;
15065;SDS011;7632;64.944;20.038;2024-03-23T06:55:16;0.93;;;0.90;;
15065;SDS011;7632;64.944;20.038;2024-03-23T06:57:43;0.90;;;0.90;;
15065;SDS011;7632;64.944;20.038;2024-03-23T07:00:10;0.80;;;0.80;;
15065;SDS011;7632;64.944;20.038;2024-03-23T07:02:38;0.80;;;0.80;;
15065;SDS011;7632;64.944;20.038;2024-03-23T07:05:05;0.93;;;0.93;;
15065;SDS011;7632;64.944;20.038;2024-03-23T07:07:32;0.93;;;0.80;;
15065;SDS011;7632;64.944;20.038;2024-03-23T07:09:58;1.00;;;1.00;;
15065;SDS011;7632;64.944;20.038;2024-03-23T07:12:24;0.90;;;0.90;;
15065;SDS011;7632;64.944;20.038;2024-03-23T07:14:52;1.00;;;0.90;;
15065;SDS011;7632;64.944;20.038;2024-03-23T07:17:18;0.90;;;0.90;;
15065;SDS011;7632;64.944;20.038;2024-03-23T07:19:46;1.00;;;0.80;;
15065;SDS011;7632;64.944;20.038;2024-03-23T07:22:12;1.20;;;1.10;;
15065;SDS011;7632;64.944;20.038;2024-03-23T07:24:39;0.80;;;0.80;;
15065;SDS011;7632;64.944;20.038;2024-03-23T07:27:06;0.80;;;0.80;;
15065;SDS011;7632;64.944;20.038;2024-03-23T07:29:35;0.90;;;0.90;;
15065;SDS011;7632;64.944;20.038;2024-03-23T07:32:02;0.90;;;0.90;;
15065;SDS011;7632;64.944;20.038;2024-03-23T07:34:29;0.90;;;0.90;;
15065;SDS011;7632;64.944;20.038;2024-03-23T07:36:55;1.57;;;1.00;;
15065;SDS011;7632;64.944;20.038;2024-03-23T07:39:22;1.10;;;1.00;;
15065;SDS011;7632;64.944;20.038;2024-03-23T07:41:50;0.90;;;0.90;;
15065;SDS011;7632;64.944;20.038;2024-03-23T07:44:15;0.90;;;0.90;;
15065;SDS011;7632;64.944;20.038;2024-03-23T07:46:42;1.00;;;1.00;;
15065;SDS011;7632;64.944;20.038;2024-03-23T07:49:09;0.70;;;0.70;;
15065;SDS011;7632;64.944;20.038;2024-03-23T07:51:36;0.83;;;0.83;;
15065;SDS011;7632;64.944;20.038;2024-03-23T07:54:04;1.37;;;0.80;;
15065;SDS011;7632;64.944;20.038;2024-03-23T07:56:32;0.90;;;0.90;;
15065;SDS011;7632;64.944;20.038;2024-03-23T07:58:57;0.77;;;0.77;;
15065;SDS011;7632;64.944;20.038;2024-03-23T08:01:24;1.00;;;1.00;;
15065;SDS011;7632;64.944;20.038;2024-03-23T08:03:50;0.70;;;0.70;;
15065;SDS011;7632;64.944;20.038;2024-03-23T08:06:18;0.87;;;0.77;;
15065;SDS011;7632;64.944;20.038;2024-03-23T08:08:46;0.90;;;0.77;;
15065;SDS011;7632;64.944;20.038;2024-03-23T08:11:14;0.93;;;0.93;;
15065;SDS011;7632;64.944;20.038;2024-03-23T08:13:40;0.80;;;0.80;;
15065;SDS011;7632;64.944;20.038;2024-03-23T08:16:08;0.80;;;0.80;;
15065;SDS011;7632;64.944;20.038;2024-03-23T08:18:34;1.00;;;0.90;;
15065;SDS011;7632;64.944;20.038;2024-03-23T08:21:01;0.90;;;0.90;;
15065;SDS011;7632;64.944;20.038;2024-03-23T08:23:30;1.00;;;1.00;;
15065;SDS011;7632;64.944;20.038;2024-03-23T08:25:59;0.90;;;0.90;;
15065;SDS011;7632;64.944;20.038;2024-03-23T08:28:25;1.10;;;1.00;;
15065;SDS011;7632;64.944;20.038;2024-03-23T08:30:52;0.90;;;0.90;;
15065;SDS011;7632;64.944;20.038;2024-03-23T08:33:18;0.90;;;0.90;;
15065;SDS011;7632;64.944;20.038;2024-03-23T08:35:52;1.03;;;0.90;;
15065;SDS011;7632;64.944;20.038;2024-03-23T08:38:19;0.87;;;0.87;;
15065;SDS011;7632;64.944;20.038;2024-03-23T08:40:47;1.20;;;1.10;;
15065;SDS011;7632;64.944;20.038;2024-03-23T08:43:13;1.40;;;1.20;;
15065;SDS011;7632;64.944;20.038;2024-03-23T08:45:39;1.30;;;1.20;;
15065;SDS011;7632;64.944;20.038;2024-03-23T08:48:06;1.13;;;1.03;;
15065;SDS011;7632;64.944;20.038;2024-03-23T08:50:34;1.67;;;1.20;;
15065;SDS011;7632;64.944;20.038;2024-03-23T08:53:00;1.13;;;1.07;;
15065;SDS011;7632;64.944;20.038;2024-03-23T08:55:27;1.20;;;1.10;;
15065;SDS011;7632;64.944;20.038;2024-03-23T08:57:54;1.03;;;0.93;;
15065;SDS011;7632;64.944;20.038;2024-03-23T09:00:21;0.90;;;0.90;;
15065;SDS011;7632;64.944;20.038;2024-03-23T09:02:47;1.20;;;1.10;;
15065;SDS011;7632;64.944;20.038;2024-03-23T09:05:14;1.23;;;1.13;;
15065;SDS011;7632;64.944;20.038;2024-03-23T09:07:40;1.47;;;1.30;;
15065;SDS011;7632;64.944;20.038;2024-03-23T09:10:07;1.97;;;1.50;;
15065;SDS011;7632;64.944;20.038;2024-03-23T09:12:33;2.13;;;1.50;;
15065;SDS011;7632;64.944;20.038;2024-03-23T09:15:01;1.60;;;1.50;;
15065;SDS011;7632;64.944;20.038;2024-03-23T09:17:28;1.60;;;1.40;;
15065;SDS011;7632;64.944;20.038;2024-03-23T09:19:54;1.50;;;1.40;;
15065;SDS011;7632;64.944;20.038;2024-03-23T09:22:20;1.33;;;1.23;;
15065;SDS011;7632;64.944;20.038;2024-03-23T09:24:47;1.40;;;1.30;;
15065;SDS011;7632;64.944;20.038;2024-03-23T09:27:13;1.50;;;1.40;;
15065;SDS011;7632;64.944;20.038;2024-03-23T09:29:39;1.67;;;1.57;;
15065;SDS011;7632;64.944;20.038;2024-03-23T09:32:07;1.60;;;1.50;;
15065;SDS011;7632;64.944;20.038;2024-03-23T09:34:34;1.60;;;1.50;;
15065;SDS011;7632;64.944;20.038;2024-03-23T09:36:59;1.90;;;1.70;;
15065;SDS011;7632;64.944;20.038;2024-03-23T09:39:26;1.90;;;1.80;;
15065;SDS011;7632;64.944;20.038;2024-03-23T09:41:56;2.00;;;1.80;;
15065;SDS011;7632;64.944;20.038;2024-03-23T09:44:23;1.70;;;1.60;;
15065;SDS011;7632;64.944;20.038;2024-03-23T09:46:51;1.70;;;1.60;;
15065;SDS011;7632;64.944;20.038;2024-03-23T09:49:19;1.73;;;1.63;;
15065;SDS011;7632;64.944;20.038;2024-03-23T09:51:45;3.83;;;2.30;;
15065;SDS011;7632;64.944;20.038;2024-03-23T09:54:12;1.87;;;1.77;;
15065;SDS011;7632;64.944;20.038;2024-03-23T09:56:38;2.00;;;1.90;;
15065;SDS011;7632;64.944;20.038;2024-03-23T09:59:05;1.80;;;1.60;;
15065;SDS011;7632;64.944;20.038;2024-03-23T10:01:31;2.43;;;1.90;;
15065;SDS011;7632;64.944;20.038;2024-03-23T10:03:58;1.87;;;1.70;;
15065;SDS011;7632;64.944;20.038;2024-03-23T10:06:25;2.17;;;1.97;;
15065;SDS011;7632;64.944;20.038;2024-03-23T10:08:52;1.90;;;1.80;;
15065;SDS011;7632;64.944;20.038;2024-03-23T10:11:20;2.07;;;1.57;;
15065;SDS011;7632;64.944;20.038;2024-03-23T10:13:47;1.87;;;1.73;;
15065;SDS011;7632;64.944;20.038;2024-03-23T10:16:20;1.70;;;1.50;;
15065;SDS011;7632;64.944;20.038;2024-03-23T10:18:48;2.07;;;1.87;;
15065;SDS011;7632;64.944;20.038;2024-03-23T10:21:15;1.80;;;1.70;;
15065;SDS011;7632;64.944;20.038;2024-03-23T10:23:44;2.17;;;1.97;;
15065;SDS011;7632;64.944;20.038;2024-03-23T10:26:14;2.47;;;1.93;;
15065;SDS011;7632;64.944;20.038;2024-03-23T10:28:52;1.60;;;1.50;;
15065;SDS011;7632;64.944;20.038;2024-03-23T10:31:24;2.10;;;1.87;;
15065;SDS011;7632;64.944;20.038;2024-03-23T10:33:51;2.10;;;1.90;;
15065;SDS011;7632;64.944;20.038;2024-03-23T10:36:19;2.10;;;1.90;;
15065;SDS011;7632;64.944;20.038;2024-03-23T10:38:49;1.87;;;1.60;;
15065;SDS011;7632;64.944;20.038;2024-03-23T10:41:16;2.70;;;1.83;;
15065;SDS011;7632;64.944;20.038;2024-03-23T10:43:43;2.27;;;1.80;;
15065;SDS011;7632;64.944;20.038;2024-03-23T10:46:11;2.10;;;1.90;;
15065;SDS011;7632;64.944;20.038;2024-03-23T10:48:38;2.00;;;1.80;;
15065;SDS011;7632;64.944;20.038;2024-03-23T10:51:04;1.97;;;1.87;;
15065;SDS011;7632;64.944;20.038;2024-03-23T10:53:33;2.20;;;1.90;;
15065;SDS011;7632;64.944;20.038;2024-03-23T10:56:01;2.20;;;2.00;;
15065;SDS011;7632;64.944;20.038;2024-03-23T10:58:29;2.23;;;2.03;;
15065;SDS011;7632;64.944;20.038;2024-03-23T11:00:57;2.20;;;2.00;;
15065;SDS011;7632;64.944;20.038;2024-03-23T11:03:30;2.50;;;2.30;;
15065;SDS011;7632;64.944;20.038;2024-03-23T11:05:57;2.23;;;2.03;;
15065;SDS011;7632;64.944;20.038;2024-03-23T11:08:30;3.37;;;2.70;;
15065;SDS011;7632;64.944;20.038;2024-03-23T11:11:20;2.50;;;2.30;;
15065;SDS011;7632;64.944;20.038;2024-03-23T11:13:48;2.70;;;2.23;;
15065;SDS011;7632;64.944;20.038;2024-03-23T11:16:15;2.40;;;2.20;;
15065;SDS011;7632;64.944;20.038;2024-03-23T11:18:43;2.67;;;2.47;;
15065;SDS011;7632;64.944;20.038;2024-03-23T11:21:09;2.33;;;2.10;;
15065;SDS011;7632;64.944;20.038;2024-03-23T11:23:36;2.23;;;2.03;;
15065;SDS011;7632;64.944;20.038;2024-03-23T11:26:06;2.33;;;2.13;;
15065;SDS011;7632;64.944;20.038;2024-03-23T11:28:35;2.40;;;2.20;;
15065;SDS011;7632;64.944;20.038;2024-03-23T11:31:01;2.50;;;2.20;;
15065;SDS011;7632;64.944;20.038;2024-03-23T11:33:27;2.30;;;2.10;;
15065;SDS011;7632;64.944;20.038;2024-03-23T11:35:54;2.43;;;2.23;;
15065;SDS011;7632;64.944;20.038;2024-03-23T11:38:21;2.43;;;2.23;;
15065;SDS011;7632;64.944;20.038;2024-03-23T11:40:47;2.50;;;2.30;;
15065;SDS011;7632;64.944;20.038;2024-03-23T11:43:16;3.73;;;2.73;;
15065;SDS011;7632;64.944;20.038;2024-03-23T11:45:44;2.43;;;2.23;;
15065;SDS011;7632;64.944;20.038;2024-03-23T11:48:12;2.50;;;2.30;;
15065;SDS011;7632;64.944;20.038;2024-03-23T11:50:39;2.40;;;2.20;;
15065;SDS011;7632;64.944;20.038;2024-03-23T11:53:08;2.63;;;2.17;;
15065;SDS011;7632;64.944;20.038;2024-03-23T11:55:47;2.33;;;2.13;;
15065;SDS011;7632;64.944;20.038;2024-03-23T11:58:15;3.00;;;2.37;;
15065;SDS011;7632;64.944;20.038;2024-03-23T12:00:48;2.50;;;2.30;;
15065;SDS011;7632;64.944;20.038;2024-03-23T12:03:16;2.03;;;1.83;;
15065;SDS011;7632;64.944;20.038;2024-03-23T12:05:47;3.00;;;2.23;;
15065;SDS011;7632;64.944;20.038;2024-03-23T12:08:17;2.80;;;2.30;;
15065;SDS011;7632;64.944;20.038;2024-03-23T12:10:46;2.93;;;2.40;;
15065;SDS011;7632;64.944;20.038;2024-03-23T12:13:15;2.53;;;2.33;;
15065;SDS011;7632;64.944;20.038;2024-03-23T12:15:46;2.20;;;2.00;;
15065;SDS011;7632;64.944;20.038;2024-03-23T12:18:13;2.23;;;2.03;;
15065;SDS011;7632;64.944;20.038;2024-03-23T12:20:39;2.20;;;2.00;;
15065;SDS011;7632;64.944;20.038;2024-03-23T12:23:07;2.13;;;1.93;;
15065;SDS011;7632;64.944;20.038;2024-03-23T12:25:34;2.23;;;2.00;;
15065;SDS011;7632;64.944;20.038;2024-03-23T12:28:01;2.00;;;1.80;;
15065;SDS011;7632;64.944;20.038;2024-03-23T12:30:27;1.87;;;1.67;;
15065;SDS011;7632;64.944;20.038;2024-03-23T12:32:55;2.10;;;1.90;;
15065;SDS011;7632;64.944;20.038;2024-03-23T12:35:22;2.20;;;2.00;;
15065;SDS011;7632;64.944;20.038;2024-03-23T12:37:49;2.07;;;1.87;;
15065;SDS011;7632;64.944;20.038;2024-03-23T12:40:14;2.00;;;1.90;;
15065;SDS011;7632;64.944;20.038;2024-03-23T12:42:41;2.00;;;1.80;;
15065;SDS011;7632;64.944;20.038;2024-03-23T12:45:08;5.83;;;2.00;;
15065;SDS011;7632;64.944;20.038;2024-03-23T12:47:35;2.23;;;2.00;;
15065;SDS011;7632;64.944;20.038;2024-03-23T12:50:02;1.87;;;1.77;;
15065;SDS011;7632;64.944;20.038;2024-03-23T12:52:31;2.43;;;1.90;;
15065;SDS011;7632;64.944;20.038;2024-03-23T12:54:56;2.60;;;1.93;;
15065;SDS011;7632;64.944;20.038;2024-03-23T12:57:23;2.10;;;1.90;;
15065;SDS011;7632;64.944;20.038;2024-03-23T12:59:49;2.40;;;1.97;;
15065;SDS011;7632;64.944;20.038;2024-03-23T13:02:18;2.33;;;1.90;;
15065;SDS011;7632;64.944;20.038;2024-03-23T13:04:45;2.30;;;2.00;;
15065;SDS011;7632;64.944;20.038;2024-03-23T13:07:17;1.90;;;1.80;;
15065;SDS011;7632;64.944;20.038;2024-03-23T13:09:44;2.03;;;1.70;;
15065;SDS011;7632;64.944;20.038;2024-03-23T13:12:11;2.20;;;2.00;;
15065;SDS011;7632;64.944;20.038;2024-03-23T13:14:37;1.83;;;1.70;;
15065;SDS011;7632;64.944;20.038;2024-03-23T13:17:04;2.10;;;1.90;;
15065;SDS011;7632;64.944;20.038;2024-03-23T13:19:30;2.03;;;1.83;;
15065;SDS011;7632;64.944;20.038;2024-03-23T13:21:57;1.90;;;1.70;;
15065;SDS011;7632;64.944;20.038;2024-03-23T13:24:25;1.70;;;1.60;;
15065;SDS011;7632;64.944;20.038;2024-03-23T13:26:52;2.20;;;1.90;;
15065;SDS011;7632;64.944;20.038;2024-03-23T13:29:19;1.70;;;1.57;;
15065;SDS011;7632;64.944;20.038;2024-03-23T13:31:46;1.70;;;1.50;;
15065;SDS011;7632;64.944;20.038;2024-03-23T13:34:12;1.83;;;1.57;;
15065;SDS011;7632;64.944;20.038;2024-03-23T13:36:40;1.67;;;1.57;;
15065;SDS011;7632;64.944;20.038;2024-03-23T13:39:06;1.40;;;1.30;;
15065;SDS011;7632;64.944;20.038;2024-03-23T13:41:38;1.67;;;1.43;;
15065;SDS011;7632;64.944;20.038;2024-03-23T13:44:04;2.20;;;1.40;;
15065;SDS011;7632;64.944;20.038;2024-03-23T13:46:31;1.40;;;1.30;;
15065;SDS011;7632;64.944;20.038;2024-03-23T13:48:57;1.73;;;1.40;;
15065;SDS011;7632;64.944;20.038;2024-03-23T13:51:24;2.67;;;1.50;;
15065;SDS011;7632;64.944;20.038;2024-03-23T13:53:52;1.60;;;1.50;;
15065;SDS011;7632;64.944;20.038;2024-03-23T13:56:19;2.10;;;1.57;;
15065;SDS011;7632;64.944;20.038;2024-03-23T13:58:46;1.77;;;1.63;;
15065;SDS011;7632;64.944;20.038;2024-03-23T14:01:13;2.10;;;1.40;;
15065;SDS011;7632;64.944;20.038;2024-03-23T14:03:39;1.90;;;1.60;;
15065;SDS011;7632;64.944;20.038;2024-03-23T14:06:07;1.33;;;1.23;;
15065;SDS011;7632;64.944;20.038;2024-03-23T14:08:33;2.33;;;1.50;;
15065;SDS011;7632;64.944;20.038;2024-03-23T14:11:01;1.70;;;1.33;;
15065;SDS011;7632;64.944;20.038;2024-03-23T14:13:28;1.90;;;1.40;;
15065;SDS011;7632;64.944;20.038;2024-03-23T14:15:57;1.80;;;1.50;;
15065;SDS011;7632;64.944;20.038;2024-03-23T14:18:23;2.30;;;1.20;;
15065;SDS011;7632;64.944;20.038;2024-03-23T14:20:51;1.83;;;1.20;;
15065;SDS011;7632;64.944;20.038;2024-03-23T14:23:18;1.37;;;1.27;;
15065;SDS011;7632;64.944;20.038;2024-03-23T14:25:45;1.40;;;1.27;;
15065;SDS011;7632;64.944;20.038;2024-03-23T14:28:11;2.40;;;1.30;;
15065;SDS011;7632;64.944;20.038;2024-03-23T14:30:40;1.20;;;1.10;;
15065;SDS011;7632;64.944;20.038;2024-03-23T14:33:08;1.50;;;1.40;;
15065;SDS011;7632;64.944;20.038;2024-03-23T14:35:35;1.13;;;1.03;;
15065;SDS011;7632;64.944;20.038;2024-03-23T14:38:01;1.37;;;1.23;;
15065;SDS011;7632;64.944;20.038;2024-03-23T14:40:28;1.40;;;1.30;;
15065;SDS011;7632;64.944;20.038;2024-03-23T14:42:54;1.20;;;1.10;;
15065;SDS011;7632;64.944;20.038;2024-03-23T14:45:21;1.47;;;1.17;;
15065;SDS011;7632;64.944;20.038;2024-03-23T14:47:47;1.40;;;1.30;;
15065;SDS011;7632;64.944;20.038;2024-03-23T14:50:15;1.50;;;1.40;;
15065;SDS011;7632;64.944;20.038;2024-03-23T14:52:42;1.30;;;1.20;;
15065;SDS011;7632;64.944;20.038;2024-03-23T14:55:10;1.30;;;1.17;;
15065;SDS011;7632;64.944;20.038;2024-03-23T14:57:36;1.37;;;0.90;;
15065;SDS011;7632;64.944;20.038;2024-03-23T15:00:05;1.43;;;1.30;;
15065;SDS011;7632;64.944;20.038;2024-03-23T15:02:32;1.73;;;1.47;;
15065;SDS011;7632;64.944;20.038;2024-03-23T15:04:59;1.20;;;1.10;;
15065;SDS011;7632;64.944;20.038;2024-03-23T15:07:26;1.10;;;1.00;;
15065;SDS011;7632;64.944;20.038;2024-03-23T15:09:53;1.43;;;1.10;;
15065;SDS011;7632;64.944;20.038;2024-03-23T15:12:19;1.30;;;1.20;;
15065;SDS011;7632;64.944;20.038;2024-03-23T15:14:46;1.40;;;1.30;;
15065;SDS011;7632;64.944;20.038;2024-03-23T15:17:12;1.60;;;1.30;;
15065;SDS011;7632;64.944;20.038;2024-03-23T15:19:39;1.30;;;1.20;;
15065;SDS011;7632;64.944;20.038;2024-03-23T15:22:06;1.40;;;1.30;;
15065;SDS011;7632;64.944;20.038;2024-03-23T15:24:35;1.30;;;1.20;;
15065;SDS011;7632;64.944;20.038;2024-03-23T15:27:01;1.40;;;1.23;;
15065;SDS011;7632;64.944;20.038;2024-03-23T15:29:28;1.27;;;1.17;;
15065;SDS011;7632;64.944;20.038;2024-03-23T15:31:54;1.20;;;1.10;;
15065;SDS011;7632;64.944;20.038;2024-03-23T15:34:22;1.23;;;1.13;;
15065;SDS011;7632;64.944;20.038;2024-03-23T15:36:47;1.20;;;1.07;;
15065;SDS011;7632;64.944;20.038;2024-03-23T15:39:16;1.27;;;1.10;;